createdAt,value
2023-03-22T00:00:07.245Z,17.85
2023-03-22T00:01:11.013Z,16.23
2023-03-22T00:02:13.430Z,17.42
2023-03-22T00:03:16.985Z,13.93
2023-03-22T00:04:20.307Z,17.90
2023-03-22T00:05:22.825Z,20.25
2023-03-22T00:06:26.717Z,13.57
2023-03-22T00:07:29.031Z,15.85
2023-03-22T00:08:32.384Z,16.25
2023-03-22T00:09:34.709Z,15.77
2023-03-22T00:10:39.011Z,19.20
2023-03-22T00:11:41.438Z,14.77
2023-03-22T00:12:44.781Z,14.20
2023-03-22T00:13:47.202Z,15.43
2023-03-22T00:14:50.525Z,11.57
2023-03-22T00:15:55.570Z,13.05
2023-03-22T00:16:58.921Z,15.57
2023-03-22T00:18:02.179Z,17.63
2023-03-22T00:19:05.563Z,16.00
2023-03-22T00:20:08.931Z,14.43
2023-03-22T00:21:13.572Z,16.67
2023-03-22T00:22:16.240Z,15.93
2023-03-22T00:23:19.832Z,15.20
2023-03-22T00:24:22.140Z,14.63
2023-03-22T00:25:25.575Z,14.60
2023-03-22T00:26:27.887Z,15.40
2023-03-22T00:27:31.217Z,13.80
2023-03-22T00:28:33.516Z,12.35
2023-03-22T00:29:36.839Z,14.95
2023-03-22T00:30:39.428Z,15.20
2023-03-22T00:31:44.311Z,13.65
2023-03-22T00:32:46.735Z,14.80
2023-03-22T00:33:50.017Z,14.82
2023-03-22T00:34:52.355Z,15.63
2023-03-22T00:35:56.875Z,16.52
2023-03-22T00:36:59.369Z,15.02
2023-03-22T00:38:06.459Z,17.20
2023-03-22T00:39:08.858Z,15.02
2023-03-22T00:40:13.313Z,12.80
2023-03-22T00:41:21.499Z,14.85
2023-03-22T00:42:23.786Z,16.20
2023-03-22T00:43:27.053Z,14.18
2023-03-22T00:44:29.361Z,16.30
2023-03-22T00:45:32.643Z,17.80
2023-03-22T00:46:34.993Z,14.38
2023-03-22T00:47:40.041Z,14.20
2023-03-22T00:48:42.459Z,14.70
2023-03-22T00:49:45.903Z,15.48
2023-03-22T00:50:48.199Z,13.52
2023-03-22T00:51:51.521Z,16.83
2023-03-22T00:52:53.844Z,15.32
2023-03-22T00:53:57.179Z,18.52
2023-03-22T00:54:59.540Z,14.35
2023-03-22T00:56:02.812Z,16.42
2023-03-22T00:57:05.316Z,20.10
2023-03-22T00:58:08.584Z,19.27
2023-03-22T00:59:10.911Z,17.00
2023-03-22T01:00:16.230Z,18.25
2023-03-22T01:01:19.764Z,21.85
2023-03-22T01:02:29.889Z,20.75
2023-03-22T01:03:35.052Z,20.48
2023-03-22T01:04:37.399Z,19.30
2023-03-22T01:05:40.719Z,19.77
2023-03-22T01:06:43.035Z,18.58
2023-03-22T01:07:46.521Z,20.20
2023-03-22T01:08:50.996Z,20.73
2023-03-22T01:09:54.399Z,16.83
2023-03-22T01:10:56.752Z,15.20
2023-03-22T01:12:00.240Z,16.50
2023-03-22T01:13:02.586Z,18.08
2023-03-22T01:14:05.879Z,18.35
2023-03-22T01:15:08.858Z,20.45
2023-03-22T01:16:12.415Z,15.70
2023-03-22T01:17:14.890Z,19.65
2023-03-22T01:18:18.214Z,16.67
2023-03-22T01:19:22.112Z,17.40
2023-03-22T01:20:25.545Z,16.58
2023-03-22T01:21:27.882Z,17.08
2023-03-22T01:22:31.272Z,18.20
2023-03-22T01:23:33.565Z,17.65
2023-03-22T01:24:36.862Z,16.35
2023-03-22T01:25:39.175Z,17.98
2023-03-22T01:26:42.474Z,18.90
2023-03-22T01:27:44.803Z,16.70
2023-03-22T01:28:48.094Z,21.48
2023-03-22T01:29:50.738Z,21.50
2023-03-22T01:30:54.041Z,18.65
2023-03-22T01:31:56.437Z,19.98
2023-03-22T01:32:59.737Z,18.80
2023-03-22T01:34:02.089Z,20.33
2023-03-22T01:35:07.393Z,19.63
2023-03-22T01:36:09.977Z,17.48
2023-03-22T01:37:13.268Z,17.80
2023-03-22T01:38:15.577Z,19.15
2023-03-22T01:39:18.949Z,18.77
2023-03-22T01:40:21.338Z,17.90
2023-03-22T01:41:24.616Z,18.35
2023-03-22T01:42:27.533Z,17.15
2023-03-22T01:43:30.893Z,20.00
2023-03-22T01:44:33.197Z,20.48
2023-03-22T01:45:38.136Z,17.92
2023-03-22T01:46:41.559Z,17.90
2023-03-22T01:47:46.578Z,17.65
2023-03-22T01:48:49.933Z,18.65
2023-03-22T01:49:52.320Z,17.02
2023-03-22T01:51:03.250Z,18.25
2023-03-22T01:52:07.785Z,19.88
2023-03-22T01:53:13.722Z,18.67
2023-03-22T01:54:19.074Z,20.95
2023-03-22T01:55:22.868Z,18.23
2023-03-22T01:56:28.416Z,16.08
2023-03-22T01:57:33.535Z,20.90
2023-03-22T01:58:38.369Z,19.52
2023-03-22T01:59:41.636Z,17.80
2023-03-22T02:00:44.920Z,18.48
2023-03-22T02:01:47.316Z,21.05
2023-03-22T02:02:52.165Z,18.75
2023-03-22T02:03:57.559Z,20.88
2023-03-22T02:05:00.864Z,17.92
2023-03-22T02:06:04.676Z,20.05
2023-03-22T02:07:10.089Z,21.45
2023-03-22T02:08:15.146Z,18.33
2023-03-22T02:09:21.977Z,18.70
2023-03-22T02:10:26.922Z,17.90
2023-03-22T02:11:31.650Z,17.60
2023-03-22T02:12:38.056Z,18.80
2023-03-22T02:14:03.611Z,18.50
2023-03-22T02:15:10.935Z,17.10
2023-03-22T02:16:17.707Z,18.17
2023-03-22T02:17:26.209Z,18.50
2023-03-22T02:18:38.592Z,16.35
2023-03-22T02:19:59.290Z,16.05
2023-03-22T02:21:20.672Z,15.63
2023-03-22T02:22:39.359Z,17.05
2023-03-22T02:23:55.010Z,17.67
2023-03-22T02:25:14.828Z,18.33
2023-03-22T02:26:33.097Z,19.27
2023-03-22T02:27:40.452Z,17.73
2023-03-22T02:28:47.471Z,16.50
2023-03-22T02:29:52.591Z,18.17
2023-03-22T02:31:04.265Z,20.23
2023-03-22T02:32:34.849Z,16.92
2023-03-22T02:33:43.115Z,17.88
2023-03-22T02:34:55.702Z,19.95
2023-03-22T02:36:16.822Z,16.10
2023-03-22T02:37:50.378Z,15.50
2023-03-22T02:39:01.021Z,15.18
2023-03-22T02:40:07.430Z,16.10
2023-03-22T02:41:13.558Z,14.60
2023-03-22T02:42:24.590Z,19.52
2023-03-22T02:43:38.394Z,20.35
2023-03-22T02:44:42.765Z,16.33
2023-03-22T02:45:48.234Z,20.38
2023-03-22T02:46:56.226Z,17.35
2023-03-22T02:48:03.692Z,19.48
2023-03-22T02:49:10.241Z,18.33
2023-03-22T02:50:16.646Z,18.73
2023-03-22T02:51:21.687Z,19.52
2023-03-22T02:52:28.076Z,18.23
2023-03-22T02:53:32.901Z,17.50
2023-03-22T02:54:39.909Z,19.30
2023-03-22T02:55:45.266Z,15.50
2023-03-22T02:56:50.067Z,15.65
2023-03-22T02:57:56.509Z,20.02
2023-03-22T02:59:01.507Z,18.25
2023-03-22T03:00:08.752Z,15.88
2023-03-22T03:01:14.469Z,20.20
2023-03-22T03:02:18.407Z,20.75
2023-03-22T03:03:24.304Z,18.10
2023-03-22T03:04:29.332Z,15.95
2023-03-22T03:05:33.663Z,19.02
2023-03-22T03:06:39.871Z,17.58
2023-03-22T03:07:44.906Z,20.00
2023-03-22T03:08:47.731Z,20.15
2023-03-22T03:09:52.858Z,18.63
2023-03-22T03:10:55.303Z,18.73
2023-03-22T03:11:58.577Z,20.55
2023-03-22T03:13:01.106Z,19.73
2023-03-22T03:14:04.386Z,19.60
2023-03-22T03:15:13.919Z,18.98
2023-03-22T03:16:18.743Z,22.77
2023-03-22T03:17:25.741Z,22.77
2023-03-22T03:18:35.094Z,19.58
2023-03-22T03:19:39.940Z,18.65
2023-03-22T03:20:48.712Z,22.45
2023-03-22T03:21:53.628Z,22.05
2023-03-22T03:23:02.317Z,24.67
2023-03-22T03:24:13.551Z,20.67
2023-03-22T03:25:20.485Z,20.70
2023-03-22T03:26:26.552Z,21.90
2023-03-22T03:27:33.840Z,22.67
2023-03-22T03:28:39.771Z,24.35
2023-03-22T03:29:44.567Z,22.67
2023-03-22T03:30:50.151Z,25.60
2023-03-22T03:31:57.466Z,23.13
2023-03-22T03:33:01.600Z,23.67
2023-03-22T03:34:09.415Z,25.35
2023-03-22T03:35:18.078Z,25.08
2023-03-22T03:36:22.555Z,25.95
2023-03-22T03:37:26.949Z,22.80
2023-03-22T03:38:31.012Z,27.02
2023-03-22T03:39:34.809Z,28.42
2023-03-22T03:40:41.844Z,26.75
2023-03-22T03:41:45.289Z,30.63
2023-03-22T03:42:50.119Z,25.02
2023-03-22T03:43:54.032Z,29.10
2023-03-22T03:44:57.845Z,28.83
2023-03-22T03:46:01.210Z,29.83
2023-03-22T03:47:04.654Z,30.73
2023-03-22T03:48:08.919Z,30.77
2023-03-22T03:49:13.997Z,31.08
2023-03-22T03:50:16.946Z,31.20
2023-03-22T03:51:20.326Z,32.72
2023-03-22T03:52:24.610Z,33.53
2023-03-22T03:53:27.898Z,29.52
2023-03-22T03:54:30.210Z,32.38
2023-03-22T03:55:33.802Z,28.90
2023-03-22T03:56:37.488Z,31.33
2023-03-22T03:57:40.775Z,33.92
2023-03-22T03:58:43.100Z,31.15
2023-03-22T03:59:46.545Z,34.90
2023-03-22T04:00:49.109Z,30.65
2023-03-22T04:01:52.814Z,36.53
2023-03-22T04:02:55.386Z,35.38
2023-03-22T04:03:58.733Z,34.20
2023-03-22T04:05:01.005Z,33.47
2023-03-22T04:06:04.826Z,35.13
2023-03-22T04:07:08.352Z,34.45
2023-03-22T04:08:10.752Z,31.15
2023-03-22T04:09:14.008Z,31.05
2023-03-22T04:10:16.376Z,35.70
2023-03-22T04:11:19.648Z,37.80
2023-03-22T04:12:23.297Z,35.38
2023-03-22T04:13:26.636Z,37.25
2023-03-22T04:14:29.304Z,34.88
2023-03-22T04:15:32.806Z,38.20
2023-03-22T04:16:35.307Z,40.80
2023-03-22T04:17:39.543Z,39.53
2023-03-22T04:18:41.873Z,45.20
2023-03-22T04:19:45.739Z,41.03
2023-03-22T04:20:49.556Z,40.20
2023-03-22T04:21:53.264Z,40.40
2023-03-22T04:22:55.714Z,38.63
2023-03-22T04:23:59.034Z,35.05
2023-03-22T04:25:01.536Z,38.53
2023-03-22T04:26:05.885Z,39.60
2023-03-22T04:27:09.499Z,37.47
2023-03-22T04:28:14.295Z,42.53
2023-03-22T04:29:16.627Z,39.20
2023-03-22T04:30:20.432Z,37.50
2023-03-22T04:31:22.844Z,38.45
2023-03-22T04:32:26.148Z,37.47
2023-03-22T04:33:32.437Z,36.67
2023-03-22T04:34:35.955Z,40.67
2023-03-22T04:35:38.403Z,38.17
2023-03-22T04:36:41.887Z,38.53
2023-03-22T04:37:45.760Z,41.35
2023-03-22T04:38:48.487Z,39.95
2023-03-22T04:39:51.980Z,36.78
2023-03-22T04:40:55.388Z,38.25
2023-03-22T04:41:58.687Z,38.85
2023-03-22T04:43:04.132Z,45.90
2023-03-22T04:44:09.175Z,46.63
2023-03-22T04:45:12.170Z,44.90
2023-03-22T04:46:15.992Z,41.40
2023-03-22T04:47:19.157Z,41.55
2023-03-22T04:48:22.500Z,39.17
2023-03-22T04:49:24.933Z,35.72
2023-03-22T04:50:28.728Z,40.72
2023-03-22T04:51:32.194Z,38.25
2023-03-22T04:52:35.513Z,42.80
2023-03-22T04:53:39.107Z,40.28
2023-03-22T04:54:42.517Z,40.28
2023-03-22T04:55:45.498Z,37.58
2023-03-22T04:56:48.918Z,36.55
2023-03-22T04:57:51.276Z,35.05
2023-03-22T04:58:54.669Z,39.80
2023-03-22T04:59:58.342Z,37.97
2023-03-22T05:01:01.654Z,39.95
2023-03-22T05:02:03.974Z,33.22
2023-03-22T05:03:07.295Z,37.85
2023-03-22T05:04:09.660Z,37.70
2023-03-22T05:05:12.956Z,31.08
2023-03-22T05:06:15.990Z,32.03
2023-03-22T05:07:19.350Z,33.42
2023-03-22T05:08:22.052Z,35.72
2023-03-22T05:09:25.486Z,36.67
2023-03-22T05:10:27.790Z,34.33
2023-03-22T05:11:31.124Z,37.55
2023-03-22T05:12:33.475Z,33.38
2023-03-22T05:13:37.513Z,33.92
2023-03-22T05:14:39.872Z,34.45
2023-03-22T05:15:45.603Z,32.63
2023-03-22T05:16:47.917Z,35.60
2023-03-22T05:17:51.260Z,37.30
2023-03-22T05:18:54.495Z,31.30
2023-03-22T05:19:57.791Z,32.03
2023-03-22T05:21:00.871Z,32.67
2023-03-22T05:22:04.180Z,39.28
2023-03-22T05:23:06.560Z,37.72
2023-03-22T05:24:10.106Z,34.63
2023-03-22T05:25:12.438Z,34.72
2023-03-22T05:26:16.295Z,33.85
2023-03-22T05:27:31.569Z,31.95
2023-03-22T05:28:35.805Z,30.90
2023-03-22T05:29:38.222Z,33.95
2023-03-22T05:30:41.776Z,32.45
2023-03-22T05:31:45.595Z,34.15
2023-03-22T05:32:49.686Z,31.52
2023-03-22T05:33:52.644Z,31.85
2023-03-22T05:34:55.925Z,36.33
2023-03-22T05:35:58.308Z,32.85
2023-03-22T05:37:01.625Z,31.88
2023-03-22T05:38:04.180Z,32.83
2023-03-22T05:39:08.096Z,32.28
2023-03-22T05:40:10.589Z,30.25
2023-03-22T05:41:14.245Z,34.78
2023-03-22T05:42:16.586Z,33.33
2023-03-22T05:43:20.327Z,34.20
2023-03-22T05:44:22.636Z,29.98
2023-03-22T05:45:26.334Z,28.17
2023-03-22T05:46:29.742Z,31.65
2023-03-22T05:47:33.997Z,35.08
2023-03-22T05:48:37.481Z,33.72
2023-03-22T05:49:39.784Z,33.17
2023-03-22T05:50:43.125Z,35.45
2023-03-22T05:51:45.470Z,33.47
2023-03-22T05:52:48.897Z,33.28
2023-03-22T05:53:51.758Z,32.42
2023-03-22T05:54:55.047Z,32.72
2023-03-22T05:56:00.697Z,31.83
2023-03-22T05:57:03.983Z,34.63
2023-03-22T05:58:07.660Z,34.85
2023-03-22T05:59:10.975Z,33.85
2023-03-22T06:00:15.145Z,35.08
2023-03-22T06:01:20.567Z,34.33
2023-03-22T06:02:22.948Z,32.50
2023-03-22T06:03:27.706Z,32.78
2023-03-22T06:04:30.429Z,31.48
2023-03-22T06:05:36.529Z,37.35
2023-03-22T06:06:39.381Z,34.97
2023-03-22T06:07:43.134Z,34.13
2023-03-22T06:08:45.428Z,34.00
2023-03-22T06:09:50.130Z,34.13
2023-03-22T06:10:52.887Z,32.55
2023-03-22T06:11:56.170Z,36.22
2023-03-22T06:12:58.496Z,36.85
2023-03-22T06:14:01.894Z,37.00
2023-03-22T06:15:04.658Z,35.92
2023-03-22T06:16:08.365Z,32.75
2023-03-22T06:17:12.035Z,35.67
2023-03-22T06:18:15.534Z,37.13
2023-03-22T06:19:19.353Z,36.60
2023-03-22T06:20:22.633Z,40.65
2023-03-22T06:21:25.124Z,35.35
2023-03-22T06:22:30.594Z,35.70
2023-03-22T06:23:32.919Z,38.35
2023-03-22T06:24:36.408Z,32.80
2023-03-22T06:25:38.720Z,35.53
2023-03-22T06:26:41.996Z,34.22
2023-03-22T06:27:44.325Z,34.75
2023-03-22T06:28:47.589Z,36.85
2023-03-22T06:29:50.992Z,36.28
2023-03-22T06:30:54.411Z,33.00
2023-03-22T06:31:56.724Z,37.15
2023-03-22T06:33:04.385Z,34.08
2023-03-22T06:34:07.197Z,37.58
2023-03-22T06:35:11.933Z,35.88
2023-03-22T06:36:14.226Z,39.42
2023-03-22T06:37:17.488Z,37.50
2023-03-22T06:38:20.786Z,34.47
2023-03-22T06:39:23.155Z,34.45
2023-03-22T06:40:26.447Z,34.45
2023-03-22T06:41:28.727Z,34.03
2023-03-22T06:42:32.026Z,36.03
2023-03-22T06:43:34.329Z,36.17
2023-03-22T06:44:37.643Z,38.22
2023-03-22T06:45:39.989Z,35.30
2023-03-22T06:46:43.394Z,38.40
2023-03-22T06:47:46.032Z,36.97
2023-03-22T06:48:49.344Z,36.38
2023-03-22T06:49:54.111Z,34.53
2023-03-22T06:50:59.598Z,36.08
2023-03-22T06:52:01.983Z,34.22
2023-03-22T06:53:05.490Z,38.33
2023-03-22T06:54:07.861Z,37.40
2023-03-22T06:55:11.413Z,35.13
2023-03-22T06:56:13.680Z,38.33
2023-03-22T06:57:17.093Z,40.80
2023-03-22T06:58:19.403Z,37.33
2023-03-22T06:59:22.703Z,36.95
2023-03-22T07:00:26.263Z,34.65
2023-03-22T07:01:28.612Z,41.58
2023-03-22T07:02:31.910Z,37.28
2023-03-22T07:03:34.200Z,36.42
2023-03-22T07:04:37.564Z,34.67
2023-03-22T07:05:40.873Z,37.35
2023-03-22T07:06:44.529Z,33.95
2023-03-22T07:07:47.810Z,35.17
2023-03-22T07:08:51.975Z,36.53
2023-03-22T07:09:56.996Z,36.28
2023-03-22T07:10:59.302Z,32.60
2023-03-22T07:12:02.749Z,34.97
2023-03-22T07:13:05.341Z,36.05
2023-03-22T07:14:08.707Z,35.40
2023-03-22T07:15:12.426Z,36.10
2023-03-22T07:16:14.803Z,36.30
2023-03-22T07:17:18.090Z,37.75
2023-03-22T07:18:20.416Z,38.10
2023-03-22T07:19:23.742Z,32.13
2023-03-22T07:20:26.137Z,32.72
2023-03-22T07:21:29.603Z,32.67
2023-03-22T07:22:33.345Z,33.75
2023-03-22T07:23:36.658Z,31.27
2023-03-22T07:24:47.402Z,32.95
2023-03-22T07:26:00.541Z,30.85
2023-03-22T07:27:02.834Z,30.13
2023-03-22T07:28:06.956Z,32.35
2023-03-22T07:29:09.345Z,33.20
2023-03-22T07:30:13.236Z,29.23
2023-03-22T07:31:16.147Z,30.02
2023-03-22T07:32:19.533Z,30.15
2023-03-22T07:33:21.902Z,30.67
2023-03-22T07:34:26.114Z,31.35
2023-03-22T07:35:28.434Z,28.70
2023-03-22T07:36:31.765Z,28.95
2023-03-22T07:37:35.625Z,27.38
2023-03-22T07:38:39.257Z,28.58
2023-03-22T07:39:42.579Z,28.45
2023-03-22T07:40:44.877Z,25.92
2023-03-22T07:41:48.156Z,26.92
2023-03-22T07:42:51.090Z,28.92
2023-03-22T07:44:04.751Z,24.92
2023-03-22T07:45:13.676Z,26.83
2023-03-22T07:46:17.065Z,27.27
2023-03-22T07:47:37.788Z,21.73
2023-03-22T07:48:43.105Z,27.20
2023-03-22T07:49:45.432Z,26.27
2023-03-22T07:50:49.137Z,27.98
2023-03-22T07:51:51.439Z,27.77
2023-03-22T07:52:56.110Z,29.88
2023-03-22T07:53:58.419Z,26.60
2023-03-22T07:55:01.704Z,27.83
2023-03-22T07:56:05.451Z,33.00
2023-03-22T07:57:08.610Z,30.10
2023-03-22T07:58:11.989Z,26.77
2023-03-22T07:59:14.313Z,30.25
2023-03-22T08:00:18.558Z,26.10
2023-03-22T08:01:21.564Z,25.70
2023-03-22T08:02:24.938Z,22.98
2023-03-22T08:03:27.409Z,24.00
2023-03-22T08:04:30.855Z,24.77
2023-03-22T08:05:33.297Z,24.63
2023-03-22T08:06:37.065Z,23.63
2023-03-22T08:07:39.349Z,23.17
2023-03-22T08:08:44.009Z,24.67
2023-03-22T08:09:46.595Z,22.63
2023-03-22T08:10:52.902Z,21.42
2023-03-22T08:11:56.224Z,23.55
2023-03-22T08:12:58.532Z,22.60
2023-03-22T08:14:01.897Z,21.42
2023-03-22T08:15:04.384Z,23.73
2023-03-22T08:16:08.254Z,21.13
2023-03-22T08:17:11.600Z,19.67
2023-03-22T08:18:13.913Z,22.73
2023-03-22T08:19:17.241Z,32.25
2023-03-22T08:20:19.763Z,23.30
2023-03-22T08:21:23.109Z,17.92
2023-03-22T08:22:26.004Z,21.52
2023-03-22T08:23:40.994Z,24.80
2023-03-22T08:24:45.588Z,19.55
2023-03-22T08:25:48.889Z,25.95
2023-03-22T08:26:52.197Z,23.33
2023-03-22T08:27:54.495Z,20.80
2023-03-22T08:28:58.422Z,21.80
2023-03-22T08:30:00.938Z,22.23
2023-03-22T08:31:13.179Z,20.88
2023-03-22T08:32:16.873Z,21.02
2023-03-22T08:33:21.999Z,22.35
2023-03-22T08:34:24.315Z,22.10
2023-03-22T08:35:27.628Z,20.67
2023-03-22T08:36:29.956Z,21.27
2023-03-22T08:37:33.252Z,19.75
2023-03-22T08:38:35.671Z,21.00
2023-03-22T08:39:39.211Z,18.42
2023-03-22T08:40:42.958Z,23.42
2023-03-22T08:41:46.330Z,17.73
2023-03-22T08:42:49.596Z,19.20
2023-03-22T08:43:51.916Z,16.65
2023-03-22T08:44:55.183Z,17.83
2023-03-22T08:45:58.882Z,16.98
2023-03-22T08:47:03.070Z,20.20
2023-03-22T08:48:06.576Z,17.52
2023-03-22T08:49:10.541Z,16.85
2023-03-22T08:50:13.209Z,19.92
2023-03-22T08:51:18.311Z,18.05
2023-03-22T08:52:22.485Z,15.73
2023-03-22T08:53:25.875Z,18.38
2023-03-22T08:54:33.519Z,19.30
2023-03-22T08:55:37.555Z,19.75
2023-03-22T08:56:41.856Z,16.92
2023-03-22T08:57:50.223Z,17.23
2023-03-22T08:58:52.549Z,14.43
2023-03-22T08:59:57.622Z,15.73
2023-03-22T09:01:01.199Z,15.23
2023-03-22T09:02:03.609Z,17.48
2023-03-22T09:03:06.999Z,17.17
2023-03-22T09:04:10.883Z,17.27
2023-03-22T09:05:14.238Z,14.43
2023-03-22T09:06:17.566Z,16.38
2023-03-22T09:07:20.369Z,15.70
2023-03-22T09:08:23.650Z,14.65
2023-03-22T09:09:26.063Z,14.10
2023-03-22T09:10:29.473Z,13.60
2023-03-22T09:11:32.812Z,14.63
2023-03-22T09:12:36.935Z,14.43
2023-03-22T09:13:40.216Z,14.63
2023-03-22T09:14:43.751Z,14.40
2023-03-22T09:15:47.162Z,14.90
2023-03-22T09:16:49.484Z,10.60
2023-03-22T09:17:52.772Z,14.80
2023-03-22T09:18:55.102Z,12.93
2023-03-22T09:20:11.492Z,12.85
2023-03-22T09:21:15.984Z,11.43
2023-03-22T09:22:19.275Z,13.00
2023-03-22T09:23:21.672Z,11.68
2023-03-22T09:24:25.029Z,11.40
2023-03-22T09:25:28.327Z,11.07
2023-03-22T09:26:30.661Z,12.10
2023-03-22T09:27:33.963Z,13.48
2023-03-22T09:28:38.201Z,14.40
2023-03-22T09:29:42.491Z,12.23
2023-03-22T09:30:44.996Z,12.02
2023-03-22T09:31:49.445Z,12.05
2023-03-22T09:32:51.826Z,12.90
2023-03-22T09:33:55.150Z,11.73
2023-03-22T09:34:58.443Z,9.48
2023-03-22T09:36:01.203Z,12.95
2023-03-22T09:37:04.840Z,9.05
2023-03-22T09:38:09.703Z,10.88
2023-03-22T09:39:12.966Z,10.68
2023-03-22T09:40:15.650Z,14.95
2023-03-22T09:41:21.124Z,13.57
2023-03-22T09:42:30.955Z,12.30
2023-03-22T09:43:34.281Z,11.45
2023-03-22T09:44:41.239Z,11.50
2023-03-22T09:45:45.336Z,13.15
2023-03-22T09:46:49.298Z,11.25
2023-03-22T09:47:55.122Z,11.80
2023-03-22T09:48:59.305Z,11.02
2023-03-22T09:50:05.728Z,12.23
2023-03-22T09:51:15.919Z,11.75
2023-03-22T09:52:19.728Z,10.93
2023-03-22T09:53:24.460Z,8.13
2023-03-22T09:54:30.427Z,8.30
2023-03-22T09:55:37.817Z,10.40
2023-03-22T09:56:41.061Z,8.77
2023-03-22T09:57:44.479Z,8.50
2023-03-22T09:58:51.488Z,9.13
2023-03-22T09:59:59.542Z,10.27
2023-03-22T10:01:04.992Z,8.90
2023-03-22T10:02:18.897Z,10.80
2023-03-22T10:03:30.412Z,9.13
2023-03-22T10:04:51.469Z,11.48
2023-03-22T10:05:55.626Z,9.65
2023-03-22T10:07:02.554Z,11.27
2023-03-22T10:08:14.543Z,10.13
2023-03-22T10:09:19.738Z,10.70
2023-03-22T10:10:24.028Z,10.30
2023-03-22T10:11:31.979Z,10.50
2023-03-22T10:12:36.433Z,10.15
2023-03-22T10:13:43.276Z,10.60
2023-03-22T10:14:50.692Z,11.73
2023-03-22T10:15:56.889Z,9.93
2023-03-22T10:17:03.643Z,10.20
2023-03-22T10:18:08.072Z,10.65
2023-03-22T10:19:18.433Z,9.95
2023-03-22T10:20:25.913Z,12.25
2023-03-22T10:21:29.321Z,14.30
2023-03-22T10:22:33.791Z,9.80
2023-03-22T10:23:38.966Z,12.63
2023-03-22T10:24:44.245Z,10.73
2023-03-22T10:25:48.132Z,10.93
2023-03-22T10:26:50.498Z,9.43
2023-03-22T10:27:54.231Z,9.73
2023-03-22T10:29:00.388Z,11.37
2023-03-22T10:30:08.871Z,8.60
2023-03-22T10:31:15.703Z,7.57
2023-03-22T10:32:19.757Z,9.13
2023-03-22T10:33:30.826Z,10.68
2023-03-22T10:34:34.189Z,10.57
2023-03-22T10:35:36.735Z,10.38
2023-03-22T10:36:40.442Z,10.25
2023-03-22T10:37:45.099Z,11.95
2023-03-22T10:38:49.859Z,11.10
2023-03-22T10:39:54.925Z,10.32
2023-03-22T10:40:59.081Z,10.38
2023-03-22T10:42:03.655Z,11.07
2023-03-22T10:43:08.871Z,10.07
2023-03-22T10:44:16.693Z,10.20
2023-03-22T10:45:20.319Z,12.80
2023-03-22T10:46:26.262Z,9.70
2023-03-22T10:47:32.108Z,9.98
2023-03-22T10:48:37.201Z,10.05
2023-03-22T10:49:40.877Z,11.53
2023-03-22T10:50:46.141Z,10.38
2023-03-22T10:51:49.917Z,7.05
2023-03-22T10:52:54.529Z,10.13
2023-03-22T10:53:58.565Z,9.70
2023-03-22T10:55:04.357Z,11.63
2023-03-22T10:56:12.452Z,11.03
2023-03-22T10:57:14.786Z,9.70
2023-03-22T10:58:18.828Z,10.47
2023-03-22T10:59:40.648Z,8.83
2023-03-22T11:00:49.153Z,11.15
2023-03-22T11:01:54.321Z,9.93
2023-03-22T11:02:59.520Z,10.13
2023-03-22T11:04:08.332Z,10.70
2023-03-22T11:05:19.482Z,7.57
2023-03-22T11:06:25.819Z,8.47
2023-03-22T11:07:31.204Z,11.00
2023-03-22T11:08:40.335Z,9.00
2023-03-22T11:09:42.626Z,10.85
2023-03-22T11:10:52.221Z,9.10
2023-03-22T11:11:56.761Z,11.00
2023-03-22T11:13:18.719Z,9.67
2023-03-22T11:14:23.009Z,9.13
2023-03-22T11:15:27.545Z,9.07
2023-03-22T11:16:31.291Z,8.30
2023-03-22T11:17:38.185Z,8.60
2023-03-22T11:18:43.255Z,7.90
2023-03-22T11:19:53.272Z,7.60
2023-03-22T11:20:59.585Z,10.50
2023-03-22T11:22:04.365Z,9.10
2023-03-22T11:23:07.011Z,10.23
2023-03-22T11:24:14.496Z,7.47
2023-03-22T11:25:18.787Z,9.47
2023-03-22T11:26:27.129Z,9.03
2023-03-22T11:27:30.614Z,7.83
2023-03-22T11:28:37.004Z,8.67
2023-03-22T11:29:44.770Z,6.70
2023-03-22T11:31:02.286Z,7.43
2023-03-22T11:32:05.571Z,6.77
2023-03-22T11:33:18.789Z,8.37
2023-03-22T11:34:22.969Z,8.87
2023-03-22T11:35:27.148Z,8.57
2023-03-22T11:36:31.311Z,8.20
2023-03-22T11:37:33.732Z,8.27
2023-03-22T11:38:38.483Z,9.00
2023-03-22T11:39:46.421Z,8.83
2023-03-22T11:40:51.557Z,7.97
2023-03-22T11:41:54.788Z,7.93
2023-03-22T11:42:58.964Z,7.83
2023-03-22T11:44:03.499Z,6.70
2023-03-22T11:45:07.492Z,7.07
2023-03-22T11:46:12.320Z,7.70
2023-03-22T11:47:15.860Z,7.23
2023-03-22T11:48:21.849Z,6.77
2023-03-22T11:49:27.222Z,7.17
2023-03-22T11:50:31.502Z,6.80
2023-03-22T11:51:36.111Z,7.20
2023-03-22T11:52:39.393Z,7.80
2023-03-22T11:53:43.183Z,7.83
2023-03-22T11:54:47.381Z,9.20
2023-03-22T11:55:51.358Z,8.30
2023-03-22T11:56:58.022Z,7.37
2023-03-22T11:58:01.345Z,6.20
2023-03-22T11:59:05.824Z,7.17
2023-03-22T12:00:15.128Z,6.13
2023-03-22T12:01:19.045Z,6.57
2023-03-22T12:02:24.837Z,7.07
2023-03-22T12:03:31.016Z,6.00
2023-03-22T12:04:36.078Z,7.63
2023-03-22T12:05:41.538Z,7.90
2023-03-22T12:06:45.279Z,6.83
2023-03-22T12:07:48.963Z,8.87
2023-03-22T12:08:55.390Z,7.87
2023-03-22T12:10:00.653Z,8.33
2023-03-22T12:11:06.775Z,6.60
2023-03-22T12:12:12.928Z,6.43
2023-03-22T12:13:18.161Z,6.73
2023-03-22T12:14:24.350Z,6.80
2023-03-22T12:15:28.681Z,7.07
2023-03-22T12:16:33.674Z,9.63
2023-03-22T12:17:39.283Z,6.83
2023-03-22T12:18:47.887Z,7.07
2023-03-22T12:19:53.772Z,7.53
2023-03-22T12:20:58.152Z,6.13
2023-03-22T12:22:00.816Z,7.97
2023-03-22T12:23:04.153Z,9.37
2023-03-22T12:24:14.874Z,8.13
2023-03-22T12:25:18.805Z,6.67
2023-03-22T12:26:23.899Z,10.27
2023-03-22T12:27:29.360Z,8.50
2023-03-22T12:28:34.404Z,7.90
2023-03-22T12:29:39.660Z,7.57
2023-03-22T12:30:44.365Z,8.60
2023-03-22T12:31:50.364Z,9.13
2023-03-22T12:32:58.762Z,9.33
2023-03-22T12:34:04.917Z,9.87
2023-03-22T12:35:17.136Z,8.77
2023-03-22T12:36:23.555Z,9.27
2023-03-22T12:37:27.136Z,8.10
2023-03-22T12:38:35.480Z,8.40
2023-03-22T12:39:40.017Z,9.17
2023-03-22T12:40:44.050Z,7.40
2023-03-22T12:41:48.042Z,7.40
2023-03-22T12:42:57.607Z,9.33
2023-03-22T12:44:02.457Z,9.67
2023-03-22T12:45:07.970Z,9.53
2023-03-22T12:46:13.550Z,9.70
2023-03-22T12:47:19.049Z,8.33
2023-03-22T12:48:27.337Z,9.57
2023-03-22T12:49:36.057Z,10.30
2023-03-22T12:50:41.766Z,9.67
2023-03-22T12:51:44.861Z,11.23
2023-03-22T12:52:49.482Z,9.87
2023-03-22T12:53:54.281Z,9.63
2023-03-22T12:54:59.158Z,11.20
2023-03-22T12:56:02.716Z,8.57
2023-03-22T12:57:05.999Z,12.60
2023-03-22T12:58:09.842Z,9.80
2023-03-22T12:59:16.650Z,12.57
2023-03-22T13:00:20.906Z,8.63
2023-03-22T13:01:27.115Z,10.47
2023-03-22T13:02:31.253Z,8.83
2023-03-22T13:03:39.201Z,10.37
2023-03-22T13:04:51.309Z,8.20
2023-03-22T13:06:01.964Z,11.77
2023-03-22T13:07:12.491Z,11.43
2023-03-22T13:08:20.542Z,12.27
2023-03-22T13:09:36.651Z,11.17
2023-03-22T13:10:42.037Z,9.20
2023-03-22T13:11:46.399Z,10.37
2023-03-22T13:13:10.837Z,10.50
2023-03-22T13:14:14.907Z,11.60
2023-03-22T13:15:40.340Z,10.43
2023-03-22T13:16:55.055Z,12.10
2023-03-22T13:17:59.075Z,11.85
2023-03-22T13:19:03.638Z,10.17
2023-03-22T13:20:23.572Z,9.73
2023-03-22T13:21:29.334Z,9.27
2023-03-22T13:22:52.672Z,8.80
2023-03-22T13:23:57.011Z,9.87
2023-03-22T13:25:08.637Z,8.50
2023-03-22T13:26:16.268Z,9.73
2023-03-22T13:27:19.749Z,11.30
2023-03-22T13:28:26.335Z,10.13
2023-03-22T13:29:36.340Z,10.60
2023-03-22T13:30:49.196Z,12.20
2023-03-22T13:31:58.491Z,9.63
2023-03-22T13:33:04.414Z,8.98
2023-03-22T13:34:14.760Z,11.63
2023-03-22T13:35:26.052Z,9.77
2023-03-22T13:36:32.207Z,9.93
2023-03-22T13:37:35.768Z,8.88
2023-03-22T13:38:42.639Z,10.25
2023-03-22T13:39:51.963Z,12.27
2023-03-22T13:40:59.407Z,10.30
2023-03-22T13:42:04.548Z,9.27
2023-03-22T13:43:14.131Z,9.82
2023-03-22T13:44:27.975Z,11.00
2023-03-22T13:45:32.056Z,10.87
2023-03-22T13:46:51.188Z,11.38
2023-03-22T13:48:14.654Z,10.33
2023-03-22T13:49:35.668Z,10.90
2023-03-22T13:50:39.953Z,9.30
2023-03-22T13:51:45.069Z,10.47
2023-03-22T13:52:54.680Z,11.30
2023-03-22T13:54:00.324Z,11.60
2023-03-22T13:55:16.870Z,12.13
2023-03-22T13:56:31.783Z,12.57
2023-03-22T13:57:49.159Z,11.53
2023-03-22T13:58:53.171Z,10.07
2023-03-22T14:00:10.468Z,9.97
2023-03-22T14:01:17.456Z,10.40
2023-03-22T14:02:22.907Z,11.50
2023-03-22T14:03:30.001Z,10.67